createdAt,value
2023-02-12T00:00:08.508Z,4.40
2023-02-12T00:02:41.593Z,5.45
2023-02-12T00:05:08.131Z,2.88
2023-02-12T00:07:34.621Z,3.72
2023-02-12T00:10:01.119Z,4.68
2023-02-12T00:12:27.527Z,4.20
2023-02-12T00:14:53.957Z,6.18
2023-02-12T00:17:20.362Z,5.47
2023-02-12T00:19:47.495Z,4.82
2023-02-12T00:22:14.040Z,4.38
2023-02-12T00:24:40.453Z,3.88
2023-02-12T00:27:06.918Z,5.22
2023-02-12T00:29:33.413Z,6.70
2023-02-12T00:32:00.011Z,6.22
2023-02-12T00:34:26.766Z,12.55
2023-02-12T00:36:53.195Z,7.40
2023-02-12T00:39:19.688Z,6.90
2023-02-12T00:41:46.196Z,3.38
2023-02-12T00:44:12.606Z,4.03
2023-02-12T00:46:39.136Z,4.63
2023-02-12T00:49:05.601Z,7.03
2023-02-12T00:51:32.016Z,4.45
2023-02-12T00:53:58.459Z,7.80
2023-02-12T00:56:25.001Z,5.03
2023-02-12T00:58:51.429Z,5.95
2023-02-12T01:01:17.977Z,4.60
2023-02-12T01:03:44.428Z,3.33
2023-02-12T01:06:10.884Z,2.35
2023-02-12T01:08:37.337Z,3.58
2023-02-12T01:11:05.521Z,2.80
2023-02-12T01:13:32.488Z,2.90
2023-02-12T01:16:04.640Z,4.93
2023-02-12T01:18:31.231Z,3.15
2023-02-12T01:20:59.020Z,4.55
2023-02-12T01:23:25.681Z,3.83
2023-02-12T01:25:52.997Z,3.13
2023-02-12T01:28:19.599Z,3.65
2023-02-12T01:30:46.102Z,5.78
2023-02-12T01:33:12.563Z,3.03
2023-02-12T01:35:39.022Z,2.67
2023-02-12T01:38:05.685Z,4.00
2023-02-12T01:40:32.356Z,3.15
2023-02-12T01:43:00.711Z,6.07
2023-02-12T01:45:36.246Z,4.20
2023-02-12T01:48:02.753Z,6.03
2023-02-12T01:50:29.264Z,4.80
2023-02-12T01:52:57.208Z,8.15
2023-02-12T01:55:24.659Z,7.40
2023-02-12T01:57:51.244Z,5.80
2023-02-12T02:00:19.818Z,4.80
2023-02-12T02:02:48.095Z,3.75
2023-02-12T02:05:18.125Z,3.88
2023-02-12T02:07:45.474Z,4.38
2023-02-12T02:10:12.012Z,3.15
2023-02-12T02:12:57.182Z,3.40
2023-02-12T02:15:24.500Z,3.22
2023-02-12T02:17:51.172Z,4.43
2023-02-12T02:20:26.752Z,4.13
2023-02-12T02:23:11.815Z,3.35
2023-02-12T02:25:44.163Z,3.13
2023-02-12T02:28:13.872Z,3.45
2023-02-12T02:31:02.103Z,3.25
2023-02-12T02:33:39.894Z,2.45
2023-02-12T02:36:12.506Z,4.22
2023-02-12T02:38:48.455Z,4.57
2023-02-12T02:41:17.660Z,4.25
2023-02-12T02:43:46.968Z,2.92
2023-02-12T02:46:20.659Z,3.63
2023-02-12T02:48:50.686Z,4.25
2023-02-12T02:51:21.902Z,3.15
2023-02-12T02:53:51.386Z,5.03
2023-02-12T02:56:19.828Z,2.60
2023-02-12T02:58:57.937Z,4.78
2023-02-12T03:01:29.594Z,4.03
2023-02-12T03:03:59.989Z,3.83
2023-02-12T03:06:35.257Z,5.75
2023-02-12T03:09:05.455Z,3.65
2023-02-12T03:11:33.338Z,3.85
2023-02-12T03:14:06.386Z,4.63
2023-02-12T03:16:35.012Z,1.88
2023-02-12T03:19:04.920Z,4.72
2023-02-12T03:21:34.596Z,3.13
2023-02-12T03:24:21.271Z,3.05
2023-02-12T03:27:08.052Z,4.53
2023-02-12T03:29:34.611Z,4.03
2023-02-12T03:32:01.049Z,2.55
2023-02-12T03:34:32.798Z,3.95
2023-02-12T03:37:02.665Z,5.57
2023-02-12T03:39:31.750Z,2.83
2023-02-12T03:42:01.097Z,2.30
2023-02-12T03:44:30.162Z,3.92
2023-02-12T03:47:05.911Z,3.35
2023-02-12T03:49:35.179Z,3.80
2023-02-12T03:52:01.813Z,3.75
2023-02-12T03:54:28.286Z,2.17
2023-02-12T03:57:03.726Z,4.10
2023-02-12T03:59:30.212Z,2.88
2023-02-12T04:01:58.436Z,3.72
2023-02-12T04:04:25.804Z,4.30
2023-02-12T04:06:53.255Z,4.40
2023-02-12T04:09:20.592Z,2.92
2023-02-12T04:12:02.097Z,4.18
2023-02-12T04:14:43.790Z,3.15
2023-02-12T04:17:19.839Z,3.17
2023-02-12T04:19:58.457Z,3.78
2023-02-12T04:22:41.966Z,3.05
2023-02-12T04:25:15.781Z,5.70
2023-02-12T04:28:02.551Z,3.92
2023-02-12T04:30:33.811Z,3.03
2023-02-12T04:33:01.914Z,3.17
2023-02-12T04:35:33.845Z,4.30
2023-02-12T04:38:04.994Z,4.35
2023-02-12T04:40:31.831Z,3.00
2023-02-12T04:42:58.247Z,3.88
2023-02-12T04:45:28.493Z,3.90
2023-02-12T04:47:55.052Z,5.10
2023-02-12T04:50:21.771Z,4.65
2023-02-12T04:52:48.448Z,5.15
2023-02-12T04:55:15.118Z,4.28
2023-02-12T04:57:41.692Z,3.58
2023-02-12T05:00:09.570Z,4.43
2023-02-12T05:02:36.294Z,5.30
2023-02-12T05:05:02.778Z,3.55
2023-02-12T05:07:29.336Z,5.03
2023-02-12T05:09:55.791Z,3.85
2023-02-12T05:12:22.285Z,3.65
2023-02-12T05:14:48.703Z,6.18
2023-02-12T05:17:15.116Z,3.97
2023-02-12T05:19:41.574Z,3.70
2023-02-12T05:22:08.059Z,4.65
2023-02-12T05:24:34.523Z,2.85
2023-02-12T05:27:00.909Z,3.13
2023-02-12T05:29:27.364Z,4.65
2023-02-12T05:31:53.903Z,3.58
2023-02-12T05:34:20.482Z,3.15
2023-02-12T05:36:46.882Z,5.10
2023-02-12T05:39:13.297Z,3.05
2023-02-12T05:41:39.802Z,3.13
2023-02-12T05:44:06.718Z,3.42
2023-02-12T05:46:33.493Z,3.55
2023-02-12T05:48:59.943Z,6.07
2023-02-12T05:51:26.771Z,4.43
2023-02-12T05:53:57.205Z,5.82
2023-02-12T05:56:25.157Z,2.83
2023-02-12T05:58:56.123Z,6.43
2023-02-12T06:01:33.091Z,4.03
2023-02-12T06:04:00.627Z,4.70
2023-02-12T06:06:28.331Z,3.55
2023-02-12T06:08:55.020Z,6.63
2023-02-12T06:11:21.511Z,5.68
2023-02-12T06:13:48.472Z,6.00
2023-02-12T06:16:22.664Z,6.15
2023-02-12T06:18:49.730Z,7.13
2023-02-12T06:21:16.668Z,8.45
2023-02-12T06:23:43.242Z,6.30
2023-02-12T06:26:09.674Z,5.28
2023-02-12T06:28:36.441Z,6.00
2023-02-12T06:31:03.093Z,6.75
2023-02-12T06:33:29.653Z,6.82
2023-02-12T06:35:56.515Z,7.10
2023-02-12T06:38:23.297Z,5.25
2023-02-12T06:40:49.776Z,8.65
2023-02-12T06:43:16.190Z,8.25
2023-02-12T06:45:42.662Z,7.55
2023-02-12T06:48:09.067Z,7.50
2023-02-12T06:50:35.590Z,9.07
2023-02-12T06:53:02.059Z,8.35
2023-02-12T06:55:28.512Z,7.07
2023-02-12T06:57:54.931Z,7.38
2023-02-12T07:00:21.673Z,6.40
2023-02-12T07:02:57.675Z,9.50
2023-02-12T07:05:24.487Z,9.57
2023-02-12T07:07:50.954Z,8.13
2023-02-12T07:10:17.874Z,8.73
2023-02-12T07:12:44.406Z,8.88
2023-02-12T07:15:10.820Z,8.68
2023-02-12T07:17:37.237Z,10.35
2023-02-12T07:20:04.272Z,11.27
2023-02-12T07:22:30.707Z,10.98
2023-02-12T07:24:57.119Z,12.40
2023-02-12T07:27:23.543Z,11.98
2023-02-12T07:29:49.979Z,10.15
2023-02-12T07:32:16.478Z,8.48
2023-02-12T07:34:43.069Z,11.43
2023-02-12T07:37:09.497Z,12.90
2023-02-12T07:39:35.984Z,13.68
2023-02-12T07:42:02.434Z,15.52
2023-02-12T07:44:29.331Z,12.35
2023-02-12T07:46:55.744Z,11.10
2023-02-12T07:49:22.378Z,6.50
2023-02-12T07:51:49.320Z,5.53
2023-02-12T07:54:16.294Z,6.07
2023-02-12T07:56:43.883Z,8.27
2023-02-12T07:59:11.739Z,5.30
2023-02-12T08:01:39.414Z,4.32
2023-02-12T08:04:07.451Z,7.88
2023-02-12T08:06:38.982Z,4.03
2023-02-12T08:09:07.069Z,5.72
2023-02-12T08:11:33.722Z,3.85
2023-02-12T08:14:00.792Z,3.47
2023-02-12T08:16:28.274Z,4.10
2023-02-12T08:18:55.541Z,5.72
2023-02-12T08:21:23.101Z,3.28
2023-02-12T08:23:52.275Z,4.75
2023-02-12T08:26:18.723Z,4.68
2023-02-12T08:28:46.875Z,3.97
2023-02-12T08:31:17.820Z,5.68
2023-02-12T08:33:44.774Z,4.80
2023-02-12T08:36:12.512Z,4.10
2023-02-12T08:38:39.245Z,5.78
2023-02-12T08:41:07.338Z,5.63
2023-02-12T08:43:34.159Z,4.53
2023-02-12T08:46:04.933Z,6.05
2023-02-12T08:48:31.418Z,4.65
2023-02-12T08:51:03.192Z,6.05
2023-02-12T08:53:29.656Z,4.65
2023-02-12T08:55:56.320Z,4.50
2023-02-12T08:58:22.846Z,4.65
2023-02-12T09:00:49.272Z,5.60
2023-02-12T09:03:15.658Z,8.40
2023-02-12T09:05:42.273Z,5.35
2023-02-12T09:08:08.817Z,4.40
2023-02-12T09:10:39.078Z,4.25
2023-02-12T09:13:06.529Z,5.43
2023-02-12T09:15:36.659Z,4.32
2023-02-12T09:18:04.127Z,2.97
2023-02-12T09:20:30.905Z,3.88
2023-02-12T09:23:00.388Z,5.57
2023-02-12T09:25:26.945Z,6.00
2023-02-12T09:27:53.394Z,6.43
2023-02-12T09:30:19.859Z,7.47
2023-02-12T09:32:46.257Z,5.65
2023-02-12T09:35:12.994Z,6.85
2023-02-12T09:37:44.437Z,6.00
2023-02-12T09:40:17.178Z,7.25
2023-02-12T09:43:00.119Z,5.13
2023-02-12T09:45:27.823Z,4.55
2023-02-12T09:48:14.501Z,4.68
2023-02-12T09:50:50.049Z,3.80
2023-02-12T09:53:17.740Z,4.13
2023-02-12T09:55:45.335Z,6.07
2023-02-12T09:58:16.828Z,5.97
2023-02-12T10:00:44.641Z,4.38
2023-02-12T10:03:16.077Z,4.15
2023-02-12T10:05:49.329Z,4.45
2023-02-12T10:08:26.521Z,6.18
2023-02-12T10:11:09.961Z,4.55
2023-02-12T10:13:41.864Z,3.60
2023-02-12T10:16:28.576Z,4.93
2023-02-12T10:19:05.147Z,5.32
2023-02-12T10:21:38.172Z,5.45
2023-02-12T10:24:23.274Z,5.68
2023-02-12T10:26:51.420Z,4.88
2023-02-12T10:29:23.246Z,6.40
2023-02-12T10:31:54.977Z,5.30
2023-02-12T10:34:23.853Z,5.40
2023-02-12T10:36:54.107Z,5.20
2023-02-12T10:39:24.836Z,4.63
2023-02-12T10:42:01.110Z,6.35
2023-02-12T10:44:27.821Z,5.40
2023-02-12T10:46:54.504Z,5.00
2023-02-12T10:49:21.553Z,7.20
2023-02-12T10:52:06.990Z,5.20
2023-02-12T10:54:46.269Z,7.22
2023-02-12T10:57:31.042Z,7.38
2023-02-12T11:00:15.137Z,6.28
2023-02-12T11:02:58.758Z,6.35
2023-02-12T11:05:26.655Z,5.78
2023-02-12T11:07:53.112Z,5.80
2023-02-12T11:10:26.559Z,8.60
2023-02-12T11:15:23.736Z,6.47
2023-02-12T11:18:00.698Z,9.15
2023-02-12T11:20:28.124Z,7.72
2023-02-12T11:22:54.802Z,9.30
2023-02-12T11:25:21.795Z,7.82
2023-02-12T11:27:59.299Z,7.18
2023-02-12T11:30:26.188Z,7.60
2023-02-12T11:32:53.223Z,7.43
2023-02-12T11:35:35.189Z,6.40
2023-02-12T11:38:02.615Z,6.00
2023-02-12T11:40:30.439Z,6.00
2023-02-12T11:42:58.552Z,7.50
2023-02-12T11:45:35.644Z,7.13
2023-02-12T11:48:02.425Z,7.03
2023-02-12T11:50:32.996Z,6.72
2023-02-12T11:53:01.884Z,7.55
2023-02-12T11:55:33.830Z,8.00
2023-02-12T11:58:04.785Z,7.78
2023-02-12T12:00:38.706Z,6.40
2023-02-12T12:03:13.461Z,7.97
2023-02-12T12:05:45.423Z,6.15
2023-02-12T12:08:19.792Z,6.20
2023-02-12T12:10:49.320Z,7.10
2023-02-12T12:13:25.675Z,6.90
2023-02-12T12:16:23.615Z,5.03
2023-02-12T12:19:22.042Z,6.57
2023-02-12T12:21:48.504Z,6.32
2023-02-12T12:24:17.290Z,4.85
2023-02-12T12:26:46.301Z,5.80
2023-02-12T12:29:15.743Z,6.70
2023-02-12T12:31:44.135Z,6.38
2023-02-12T12:34:13.090Z,7.35
2023-02-12T12:36:54.804Z,6.72
2023-02-12T12:39:50.428Z,4.97
2023-02-12T12:42:19.856Z,5.68
2023-02-12T12:44:47.237Z,6.05
2023-02-12T12:47:13.690Z,7.63
2023-02-12T12:49:43.824Z,5.10
2023-02-12T12:52:29.209Z,18.55
2023-02-12T12:55:02.262Z,7.82
2023-02-12T12:57:37.057Z,7.53
2023-02-12T13:00:12.798Z,5.68
2023-02-12T13:03:11.625Z,7.25
2023-02-12T13:05:57.130Z,5.70
2023-02-12T13:08:33.648Z,6.10
2023-02-12T13:11:02.562Z,7.10
2023-02-12T13:13:35.298Z,7.65
2023-02-12T13:16:16.502Z,5.97
2023-02-12T13:18:49.964Z,8.27
2023-02-12T13:23:49.580Z,5.88
2023-02-12T13:26:18.557Z,6.20
2023-02-12T13:28:48.628Z,6.78
2023-02-12T13:31:32.526Z,9.45
2023-02-12T13:34:01.188Z,5.95
2023-02-12T13:36:27.831Z,7.72
2023-02-12T13:39:04.952Z,8.25
2023-02-12T13:41:31.772Z,5.53
2023-02-12T13:44:14.504Z,6.68
2023-02-12T13:46:47.835Z,7.40
2023-02-12T13:49:17.004Z,7.32
2023-02-12T13:51:45.178Z,6.05
2023-02-12T13:54:29.079Z,6.45
2023-02-12T13:56:57.230Z,6.35
2023-02-12T13:59:35.730Z,6.20
2023-02-12T14:02:05.447Z,5.13
2023-02-12T14:04:46.556Z,5.70
2023-02-12T14:07:16.402Z,8.00
2023-02-12T14:09:44.587Z,6.75
2023-02-12T14:12:11.021Z,8.70
2023-02-12T14:14:38.978Z,9.90
2023-02-12T14:17:24.399Z,6.72
2023-02-12T14:19:50.889Z,8.57
2023-02-12T14:22:26.483Z,9.43
2023-02-12T14:24:53.815Z,11.23
2023-02-12T14:27:22.996Z,10.77
2023-02-12T14:30:02.830Z,9.75
2023-02-12T14:32:48.147Z,7.28
2023-02-12T14:35:26.963Z,8.05
2023-02-12T14:37:54.047Z,7.80
2023-02-12T14:40:30.657Z,8.82
2023-02-12T14:42:57.514Z,8.02
2023-02-12T14:45:41.833Z,8.38
2023-02-12T14:48:28.224Z,10.43
2023-02-12T14:50:55.043Z,10.77
2023-02-12T14:53:25.734Z,10.93
2023-02-12T14:55:52.452Z,8.23
2023-02-12T14:58:20.617Z,11.52
2023-02-12T15:00:48.576Z,10.38
2023-02-12T15:03:18.400Z,8.18
2023-02-12T15:05:59.967Z,7.85
2023-02-12T15:08:29.436Z,8.40
2023-02-12T15:10:59.684Z,9.85
2023-02-12T15:13:30.933Z,9.98
2023-02-12T15:15:57.533Z,9.00
2023-02-12T15:18:28.732Z,10.05
2023-02-12T15:20:59.240Z,8.90
2023-02-12T15:23:36.653Z,10.73
2023-02-12T15:26:03.778Z,11.00
2023-02-12T15:28:33.665Z,9.75
2023-02-12T15:31:02.093Z,11.73
2023-02-12T15:33:32.887Z,9.85
2023-02-12T15:36:00.568Z,10.60
2023-02-12T15:38:41.659Z,11.48
2023-02-12T15:41:09.116Z,12.13
2023-02-12T15:43:39.932Z,12.27
2023-02-12T15:46:07.818Z,15.02
2023-02-12T15:48:35.410Z,12.10
2023-02-12T15:51:07.961Z,13.65
2023-02-12T15:53:34.587Z,12.13
2023-02-12T15:56:01.769Z,16.08
2023-02-12T15:58:37.314Z,15.65
2023-02-12T16:01:05.244Z,12.82
2023-02-12T16:03:35.881Z,13.32
2023-02-12T16:06:04.516Z,14.23
2023-02-12T16:08:31.829Z,13.80
2023-02-12T16:10:58.641Z,15.85
2023-02-12T16:13:34.855Z,19.38
2023-02-12T16:16:13.814Z,17.63
2023-02-12T16:18:41.504Z,17.98
2023-02-12T16:21:21.565Z,18.23
2023-02-12T16:23:50.039Z,22.70
2023-02-12T16:26:17.952Z,19.83
2023-02-12T16:28:46.614Z,18.67
2023-02-12T16:31:14.662Z,19.42
2023-02-12T16:33:43.290Z,21.40
2023-02-12T16:36:12.763Z,16.88
2023-02-12T16:38:39.156Z,18.38
2023-02-12T16:41:27.279Z,16.25
2023-02-12T16:43:59.761Z,29.05
2023-02-12T16:46:26.857Z,18.70
2023-02-12T16:48:54.297Z,19.75
2023-02-12T16:51:25.673Z,18.73
2023-02-12T16:53:53.930Z,19.27
2023-02-12T16:56:21.762Z,20.50
2023-02-12T16:58:50.019Z,21.13
2023-02-12T17:01:19.241Z,24.73
2023-02-12T17:03:47.711Z,24.23
2023-02-12T17:06:14.958Z,23.45
2023-02-12T17:08:41.720Z,23.20
2023-02-12T17:11:10.781Z,23.27
2023-02-12T17:13:37.456Z,22.30
2023-02-12T17:16:04.110Z,22.15
2023-02-12T17:18:32.850Z,22.70
2023-02-12T17:21:00.647Z,23.17
2023-02-12T17:23:27.387Z,24.40
2023-02-12T17:25:54.046Z,22.95
2023-02-12T17:28:22.832Z,25.17
2023-02-12T17:30:49.459Z,29.10
2023-02-12T17:33:15.973Z,33.78
2023-02-12T17:35:42.487Z,33.83
2023-02-12T17:38:08.910Z,35.35
2023-02-12T17:40:36.491Z,33.40
2023-02-12T17:43:03.698Z,29.58
2023-02-12T17:45:30.298Z,31.65
2023-02-12T17:47:56.808Z,29.90
2023-02-12T17:50:23.211Z,30.17
2023-02-12T17:52:49.661Z,29.98
2023-02-12T17:55:17.734Z,27.80
2023-02-12T17:57:44.347Z,25.98
2023-02-12T18:00:11.868Z,24.15
2023-02-12T18:02:38.399Z,24.83
2023-02-12T18:05:05.002Z,21.77
2023-02-12T18:07:34.717Z,23.60
2023-02-12T18:10:01.292Z,23.30
2023-02-12T18:12:27.726Z,35.42
2023-02-12T18:15:01.840Z,25.48
2023-02-12T18:17:28.720Z,19.58
2023-02-12T18:19:55.290Z,20.48
2023-02-12T18:22:21.900Z,20.48
2023-02-12T18:24:48.451Z,72.20
2023-02-12T18:27:15.036Z,21.13
2023-02-12T18:29:41.730Z,22.08
2023-02-12T18:32:08.146Z,22.65
2023-02-12T18:34:34.645Z,25.25
2023-02-12T18:37:01.058Z,18.67
2023-02-12T18:39:27.543Z,20.05
2023-02-12T18:41:53.944Z,19.85
2023-02-12T18:44:20.486Z,19.25
2023-02-12T18:46:46.951Z,20.20
2023-02-12T18:49:14.338Z,24.20
2023-02-12T18:51:41.082Z,19.17
2023-02-12T18:54:08.707Z,28.70
2023-02-12T18:56:36.728Z,18.70
2023-02-12T18:59:04.822Z,18.70
2023-02-12T19:01:32.278Z,24.13
2023-02-12T19:04:00.271Z,22.10
2023-02-12T19:06:27.459Z,18.58
2023-02-12T19:08:55.068Z,21.13
2023-02-12T19:11:21.832Z,20.10
2023-02-12T19:13:48.584Z,21.23
2023-02-12T19:16:16.252Z,22.08
2023-02-12T19:18:42.915Z,21.15
2023-02-12T19:21:10.503Z,19.50
2023-02-12T19:23:37.389Z,22.77
2023-02-12T19:26:07.860Z,22.90
2023-02-12T19:28:35.239Z,22.60
2023-02-12T19:31:28.370Z,22.92
2023-02-12T19:33:57.120Z,21.83
2023-02-12T19:36:23.919Z,19.38
2023-02-12T19:38:50.588Z,23.13
2023-02-12T19:41:18.425Z,27.02
2023-02-12T19:43:45.318Z,21.75
2023-02-12T19:46:13.202Z,21.58
2023-02-12T19:48:40.002Z,22.00
2023-02-12T19:51:10.050Z,21.13
2023-02-12T19:53:36.618Z,21.13
2023-02-12T19:56:03.647Z,22.23
2023-02-12T19:58:31.053Z,26.40
2023-02-12T20:00:57.881Z,24.33
2023-02-12T20:03:26.256Z,22.65
2023-02-12T20:06:00.242Z,22.25
2023-02-12T20:08:26.742Z,22.10
2023-02-12T20:10:53.372Z,22.95
2023-02-12T20:13:21.289Z,23.08
2023-02-12T20:15:47.934Z,21.40
2023-02-12T20:18:14.534Z,21.73
2023-02-12T20:20:41.112Z,21.40
2023-02-12T20:23:07.969Z,20.02
2023-02-12T20:25:34.529Z,19.05
2023-02-12T20:28:01.065Z,18.55
2023-02-12T20:30:27.596Z,18.80
2023-02-12T20:32:54.077Z,21.13
2023-02-12T20:35:20.501Z,19.40
2023-02-12T20:37:47.090Z,20.70
2023-02-12T20:40:13.583Z,19.90
2023-02-12T20:42:40.049Z,20.27
2023-02-12T20:45:06.786Z,23.02
2023-02-12T20:47:33.594Z,24.20
2023-02-12T20:50:00.101Z,22.63
2023-02-12T20:52:26.856Z,24.90
2023-02-12T20:54:53.256Z,26.23
2023-02-12T20:57:19.662Z,24.05
2023-02-12T20:59:47.957Z,22.20
2023-02-12T21:02:14.370Z,23.77
2023-02-12T21:04:40.799Z,24.02
2023-02-12T21:07:07.327Z,21.65
2023-02-12T21:09:33.741Z,22.23
2023-02-12T21:12:00.177Z,22.90
2023-02-12T21:14:26.712Z,23.02
2023-02-12T21:16:54.340Z,23.58
2023-02-12T21:19:21.262Z,23.30
2023-02-12T21:21:47.819Z,21.15
2023-02-12T21:24:18.823Z,24.48
2023-02-12T21:26:45.333Z,24.05
2023-02-12T21:29:11.736Z,22.08
2023-02-12T21:31:42.894Z,23.63
2023-02-12T21:34:12.399Z,24.55
2023-02-12T21:36:40.010Z,24.55
2023-02-12T21:39:07.255Z,26.13
2023-02-12T21:41:35.650Z,24.73
2023-02-12T21:44:04.471Z,23.40
2023-02-12T21:46:30.962Z,27.60
2023-02-12T21:49:00.712Z,26.70
2023-02-12T21:51:31.471Z,29.20
2023-02-12T21:53:59.562Z,29.55
2023-02-12T21:56:26.637Z,27.35
2023-02-12T21:58:53.566Z,28.05
2023-02-12T22:01:22.722Z,30.02
2023-02-12T22:03:49.429Z,25.63
2023-02-12T22:06:19.035Z,29.35
2023-02-12T22:08:46.003Z,31.42
2023-02-12T22:11:12.907Z,28.88
2023-02-12T22:13:39.946Z,29.15
2023-02-12T22:16:14.016Z,29.83
2023-02-12T22:18:40.711Z,29.35
2023-02-12T22:21:09.689Z,31.08
2023-02-12T22:23:37.277Z,29.00
2023-02-12T22:26:04.574Z,25.55
2023-02-12T22:28:31.009Z,29.58
2023-02-12T22:30:57.718Z,29.15
2023-02-12T22:33:24.280Z,30.23
2023-02-12T22:35:51.441Z,28.52
2023-02-12T22:38:17.853Z,28.83
2023-02-12T22:40:44.319Z,29.00
2023-02-12T22:43:10.721Z,32.03
2023-02-12T22:45:37.247Z,29.10
2023-02-12T22:48:03.804Z,29.83
2023-02-12T22:50:30.217Z,30.67
2023-02-12T22:52:56.685Z,29.92
2023-02-12T22:55:23.136Z,30.50
2023-02-12T22:57:50.287Z,30.00
2023-02-12T23:00:17.115Z,30.70
2023-02-12T23:02:43.523Z,30.13
2023-02-12T23:05:10.048Z,29.88
2023-02-12T23:07:36.457Z,30.67
2023-02-12T23:10:02.982Z,30.60
2023-02-12T23:12:29.447Z,32.40
2023-02-12T23:14:55.940Z,32.20
2023-02-12T23:17:22.334Z,31.10
2023-02-12T23:19:48.809Z,30.35
2023-02-12T23:22:15.293Z,30.75
2023-02-12T23:24:41.794Z,31.30
2023-02-12T23:27:08.204Z,33.03
2023-02-12T23:29:35.102Z,32.10
2023-02-12T23:32:01.664Z,31.60
2023-02-12T23:34:28.248Z,32.92
2023-02-12T23:36:54.650Z,31.98
2023-02-12T23:39:21.083Z,32.35
2023-02-12T23:41:47.546Z,32.05
2023-02-12T23:44:14.044Z,32.30
2023-02-12T23:46:40.831Z,32.65
2023-02-12T23:49:07.311Z,31.63
2023-02-12T23:51:33.823Z,31.77
2023-02-12T23:54:00.989Z,33.95
2023-02-12T23:56:27.685Z,28.45
2023-02-12T23:58:57.438Z,44.88
